Latest Coastal Weather Observations for Tewantin

IDQ60701

Issued at 4:15 am EST Friday 18 April 2014 (issued every 10 minutes, with the page automatically refreshed every 10 minutes)

About coastal observations | Map of coastal stations | Coastal observations for QLD | Marine services | Other Formats
Station Details ID: 040908 Name: TEWANTIN RSL PARK Lat: -26.39 Lon: 153.04 Height: 6.4 m
Data from the previous 72 hours. | See also: Recent months at Tewantin
Date/Time
EST
Temp

°C
Wind Pressure Rain
since 9am
mm
Weather Cloud Vis
km
Sea
Height
m
Swell
Dir
 
Speed
knots
Gust
knots
hPa Trend Height
m
Period
s
Dir
18/04:00am 17.2 W 0 0 1015.9 - 0.0 - - - - - - -
18/03:30am 17.5 CALM 0 0 1016.1 - 0.0 - - - - - - -
18/03:00am 17.9 WSW 0 0 1016.0 - 0.0 - - - - - - -
18/02:30am 18.1 CALM 0 0 1016.0 - 0.0 - - - - - - -
18/02:00am 18.4 CALM 0 0 1016.2 - 0.0 - - - - - - -
18/01:30am 19.0 CALM 0 0 1016.4 - 0.0 - - - - - - -
18/01:00am 19.5 CALM 0 0 1016.6 - 0.0 - - - - - - -
18/12:30am 19.4 CALM 0 1 1016.9 - 0.0 - - - - - - -
18/12:00am 19.3 WSW 0 4 1017.2 - 0.0 - - - - - - -
 
Date/Time
EST
Temp

°C
Wind Pressure Rain
since 9am
mm
Weather Cloud Vis
km
Sea
Height
m
Swell
Dir
 
Speed
knots
Gust
knots
hPa Trend Height
m
Period
s
Dir
17/11:30pm 19.3 CALM 0 0 1017.4 - 0.0 - - - - - - -
17/11:00pm 18.8 CALM 0 0 1017.5 - 0.0 - - - - - - -
17/10:30pm 18.9 CALM 0 0 1017.5 - 0.0 - - - - - - -
17/10:00pm 18.6 CALM 0 0 1017.5 - 0.0 - - - - - - -
17/09:30pm 18.8 CALM 0 0 1017.5 - 0.0 - - - - - - -
17/09:00pm 19.0 W 1 3 1017.3 - 0.0 - - - - - - -
17/08:30pm 19.3 SW 2 4 1017.1 - 0.0 - - - - - - -
17/08:00pm 19.5 CALM 0 0 1016.9 - 0.0 - - - - - - -
17/07:30pm 20.3 CALM 0 0 1016.6 - 0.0 - - - - - - -
17/07:00pm 20.9 CALM 0 0 1016.2 - 0.0 - - - - - - -
17/06:30pm 21.6 CALM 0 0 1015.9 - 0.0 - - - - - - -
17/06:00pm 21.7 CALM 0 0 1015.6 - 0.0 - - - - - - -
17/05:30pm 22.5 E 3 4 1015.5 - 0.0 - - - - - - -
17/05:00pm 23.1 ENE 5 7 1015.2 - 0.0 - - - - - - -
17/04:30pm 23.6 E 5 8 1015.0 - 0.0 - - - - - - -
17/04:00pm 23.5 E 5 7 1014.9 - 0.0 - - - - - - -
17/03:30pm 24.0 E 5 7 1014.8 - 0.0 - - - - - - -
17/03:00pm 24.3 E 6 9 1014.7 - 0.0 - - - - - - -
17/02:30pm 23.8 ESE 6 9 1014.8 - 0.0 - - - - - - -
17/02:00pm 23.5 ESE 7 10 1015.1 - 0.0 - - - - - - -
17/01:30pm 24.5 E 7 10 1015.0 - 0.0 - - - - - - -
17/01:00pm 25.6 NE 7 9 1015.3 - 0.0 - - - - - - -
17/12:30pm 24.9 NE 6 9 1015.7 - 0.0 - - - - - - -
17/12:00pm 25.1 E 5 8 1016.1 - 0.0 - - - - - - -
17/11:30am 25.4 SE 2 6 1016.8 - 0.0 - - - - - - -
17/11:00am 25.0 E 5 6 1017.3 - 0.0 - - - - - - -
17/10:30am 25.2 E 5 8 1017.6 - 0.0 - - - - - - -
17/10:00am 24.6 ESE 4 7 1017.8 - 0.0 - - - - - - -
17/09:30am 24.5 SSE 3 5 1018.0 - 0.0 - - - - - - -
17/09:00am 23.8 S 5 7 1018.0 - 0.0 - - - - - - -
17/08:30am 22.9 S 3 5 1018.0 - 0.0 - - - - - - -
17/08:00am 21.3 CALM 0 3 1017.9 - 0.0 - - - - - - -
17/07:30am 19.9 WNW 2 4 1017.7 - 0.0 - - - - - - -
17/07:00am 18.7 CALM 0 3 1017.3 - 0.0 - - - - - - -
17/06:30am 17.2 CALM 0 0 1017.1 - 0.0 - - - - - - -
17/06:00am 16.8 CALM 0 0 1016.8 - 0.0 - - - - - - -
17/05:30am 17.2 CALM 0 0 1016.6 - 0.0 - - - - - - -
17/05:00am 17.4 CALM 0 0 1016.4 - 0.0 - - - - - - -
17/04:30am 17.4 CALM 0 0 1016.1 - 0.0 - - - - - - -
17/04:00am 17.7 CALM 0 0 1015.9 - 0.0 - - - - - - -
17/03:30am 18.1 CALM 0 2 1015.9 - 0.0 - - - - - - -
17/03:00am 17.8 CALM 0 0 1015.9 - 0.0 - - - - - - -
17/02:30am 17.7 CALM 0 3 1015.8 - 0.0 - - - - - - -
17/02:00am 17.9 WSW 1 3 1015.7 - 0.0 - - - - - - -
17/01:30am 18.0 CALM 0 3 1015.9 - 0.0 - - - - - - -
17/01:00am 18.2 CALM 0 0 1016.2 - 0.0 - - - - - - -
17/12:30am 18.7 CALM 0 0 1016.2 - 0.0 - - - - - - -
17/12:00am 18.6 CALM 0 0 1016.3 - 0.0 - - - - - - -
 
Date/Time
EST
Temp

°C
Wind Pressure Rain
since 9am
mm
Weather Cloud Vis
km
Sea
Height
m
Swell
Dir
 
Speed
knots
Gust
knots
hPa Trend Height
m
Period
s
Dir
16/11:30pm 18.2 W 1 3 1016.4 - 0.0 - - - - - - -
16/11:00pm 18.8 CALM 0 0 1016.4 - 0.0 - - - - - - -
16/10:30pm 18.6 CALM 0 0 1016.5 - 0.0 - - - - - - -
16/10:00pm 18.8 CALM 0 0 1016.5 - 0.0 - - - - - - -
16/09:30pm 19.1 SW 3 4 1016.5 - 0.0 - - - - - - -
16/09:00pm 19.2 CALM 0 0 1016.4 - 0.0 - - - - - - -
16/08:30pm 19.6 WSW 2 4 1016.1 - 0.0 - - - - - - -
16/08:00pm 20.1 CALM 0 0 1015.8 - 0.0 - - - - - - -
16/07:30pm 20.5 NW 3 4 1015.3 - 0.0 - - - - - - -
16/07:00pm 21.1 CALM 0 0 1015.2 - 0.0 - - - - - - -
16/06:30pm 21.6 CALM 0 0 1014.8 - 0.0 - - - - - - -
16/06:00pm 21.9 CALM 0 3 1014.5 - 0.0 - - - - - - -
16/05:30pm 22.3 E 3 5 1014.0 - 0.0 - - - - - - -
16/05:00pm 23.0 E 5 6 1014.0 - 0.0 - - - - - - -
16/04:30pm 23.1 ESE 6 9 1013.8 - 0.0 - - - - - - -
16/04:00pm 23.6 E 6 10 1013.5 - 0.0 - - - - - - -
16/03:30pm 23.7 E 7 9 1013.5 - 0.0 - - - - - - -
16/03:00pm 24.1 ESE 6 8 1013.5 - 0.0 - - - - - - -
16/02:30pm 24.5 E 7 11 1013.5 - 0.0 - - - - - - -
16/02:00pm 24.4 E 6 9 1013.6 - 0.0 - - - - - - -
16/01:30pm 24.0 ESE 7 10 1013.9 - 0.0 - - - - - - -
16/01:00pm 23.8 ESE 8 12 1014.0 - 0.0 - - - - - - -
16/12:30pm 24.0 ESE 5 9 1014.4 - 0.0 - - - - - - -
16/12:00pm 24.1 ESE 7 11 1015.0 - 0.0 - - - - - - -
16/11:30am 24.0 ESE 7 10 1015.4 - 0.0 - - - - - - -
16/11:00am 24.5 SE 4 7 1015.7 - 0.0 - - - - - - -
16/10:30am 24.5 SE 5 8 1016.1 - 0.0 - - - - - - -
16/10:00am 24.2 SSW 6 10 1016.6 - 0.0 - - - - - - -
16/09:30am 23.7 S 6 11 1016.7 - 0.0 - - - - - - -
16/09:00am 22.8 S 5 9 1016.7 - 0.0 - - - - - - -
16/08:30am 22.2 S 6 9 1016.6 - 0.0 - - - - - - -
16/08:00am 21.4 SSW 4 7 1016.4 - 0.0 - - - - - - -
16/07:30am 18.9 CALM 0 0 1016.1 - 0.0 - - - - - - -
16/07:00am 17.6 CALM 0 0 1015.7 - 0.0 - - - - - - -
16/06:30am 15.9 CALM 0 0 1015.5 - 0.0 - - - - - - -
16/06:00am 15.7 CALM 0 3 1015.2 - 0.0 - - - - - - -
16/05:30am 16.2 CALM 0 2 1014.9 - 0.0 - - - - - - -
16/05:00am 16.3 CALM 0 0 1014.8 - 0.0 - - - - - - -
16/04:30am 16.1 CALM 0 0 1014.5 - 0.0 - - - - - - -
16/04:00am 16.2 CALM 0 0 1014.5 - 0.0 - - - - - - -
16/03:30am 16.5 SW 1 3 1014.4 - 0.0 - - - - - - -
16/03:00am 16.6 CALM 0 0 1014.6 - 0.0 - - - - - - -
16/02:30am 16.9 CALM 0 0 1014.5 - 0.0 - - - - - - -
16/02:00am 17.0 CALM 0 0 1014.8 - 0.0 - - - - - - -
16/01:30am 17.2 S 2 4 1015.1 - 0.0 - - - - - - -
16/01:00am 17.6 CALM 0 0 1015.1 - 0.0 - - - - - - -
16/12:30am 18.1 SSW 1 3 1015.3 - 0.0 - - - - - - -
16/12:00am 18.6 SSW 4 6 1015.5 - 0.0 - - - - - - -
 
Date/Time
EST
Temp

°C
Wind Pressure Rain
since 9am
mm
Weather Cloud Vis
km
Sea
Height
m
Swell
Dir
 
Speed
knots
Gust
knots
hPa Trend Height
m
Period
s
Dir
15/11:30pm 18.9 SSW 5 7 1015.7 - 0.0 - - - - - - -
15/11:00pm 19.2 SSW 5 8 1015.9 - 0.0 - - - - - - -
15/10:30pm 19.2 SSW 5 8 1016.0 - 0.0 - - - - - - -
15/10:00pm 18.9 SSW 2 4 1015.8 - 0.0 - - - - - - -
15/09:30pm 19.5 SSW 3 4 1015.7 - 0.0 - - - - - - -
15/09:00pm 19.9 S 5 7 1015.8 - 0.0 - - - - - - -
15/08:30pm 19.8 S 4 5 1015.9 - 0.0 - - - - - - -
15/08:00pm 20.2 SSW 3 5 1015.8 - 0.0 - - - - - - -
15/07:30pm 20.5 SSW 4 6 1015.4 - 0.0 - - - - - - -
15/07:00pm 20.7 SSW 1 3 1015.2 - 0.0 - - - - - - -
15/06:30pm 21.4 S 5 7 1014.8 - 0.0 - - - - - - -
15/06:00pm 21.9 S 5 8 1014.6 - 0.0 - - - - - - -
15/05:30pm 22.2 S 7 11 1014.2 - 0.0 - - - - - - -
15/05:00pm 22.7 S 7 11 1013.9 - 0.0 - - - - - - -
15/04:30pm 23.2 SSE 7 12 1013.8 - 0.0 - - - - - - -
15/04:00pm 23.0 SSE 9 18 1013.7 - 0.0 - - - - - - -
15/03:30pm 23.6 SSE 9 14 1013.6 - 0.0 - - - - - - -
15/03:00pm 23.4 SSE 9 15 1013.5 - 0.0 - - - - - - -
15/02:30pm 24.6 SSE 7 12 1013.2 - 0.0 - - - - - - -
15/02:00pm 24.8 SSE 8 13 1013.2 - 0.0 - - - - - - -
15/01:30pm 24.0 SSE 10 15 1013.4 - 0.0 - - - - - - -
15/01:00pm 24.3 SSE 11 18 1013.5 - 0.0 - - - - - - -
15/12:30pm 24.5 S 13 22 1013.8 - 0.0 - - - - - - -
15/12:00pm 24.6 SSE 12 23 1013.9 - 0.0 - - - - - - -
15/11:30am 24.2 S 14 21 1014.2 - 0.0 - - - - - - -
15/11:00am 24.5 SSE 11 21 1014.2 - 0.0 - - - - - - -
15/10:30am 24.2 S 13 21 1014.3 - 0.0 - - - - - - -
15/10:00am 23.9 S 11 17 1015.0 - 0.0 - - - - - - -
15/09:30am 23.6 S 12 20 1015.2 - 0.0 - - - - - - -
15/09:00am 23.1 S 11 18 1015.2 - 1.0 - - - - - - -
15/08:30am 23.0 S 10 17 1015.2 - 1.0 - - - - - - -
15/08:00am 22.1 S 10 16 1015.2 - 1.0 - - - - - - -
15/07:30am 21.5 SSW 8 15 1014.9 - 1.0 - - - - - - -
15/07:00am 20.8 SSW 7 13 1014.6 - 1.0 - - - - - - -
15/06:30am 20.5 S 8 14 1014.4 - 1.0 - - - - - - -
15/06:00am 20.5 S 10 17 1014.0 - 1.0 - - - - - - -
15/05:30am 20.5 S 10 18 1013.4 - 1.0 - - - - - - -
15/05:00am 20.4 S 8 15 1013.0 - 1.0 - - - - - - -
15/04:30am 20.2 S 9 15 1012.7 - 1.0 - - - - - - -

Other Formats:

Comma delimited format used in spreadsheet applications
http://www.bom.gov.au/fwo/IDQ60701/IDQ60701.94570.axf

JavaScript Object Notation format (JSON) in row-major order
http://www.bom.gov.au/fwo/IDQ60701/IDQ60701.94570.json